createdAt,value
2023-04-08T00:01:53.705Z,7.95
2023-04-08T00:03:56.082Z,7.88
2023-04-08T00:05:57.932Z,8.65
2023-04-08T00:07:59.692Z,8.38
2023-04-08T00:10:01.386Z,8.90
2023-04-08T00:12:03.098Z,8.77
2023-04-08T00:14:04.941Z,8.57
2023-04-08T00:16:06.795Z,9.23
2023-04-08T00:18:08.601Z,8.43
2023-04-08T00:20:10.607Z,8.98
2023-04-08T00:22:12.484Z,9.40
2023-04-08T00:24:14.228Z,9.93
2023-04-08T00:26:15.884Z,8.63
2023-04-08T00:28:17.552Z,9.00
2023-04-08T00:30:19.547Z,8.30
2023-04-08T00:32:21.640Z,11.18
2023-04-08T00:34:23.873Z,8.52
2023-04-08T00:36:27.788Z,8.23
2023-04-08T00:38:29.532Z,8.00
2023-04-08T00:40:31.198Z,7.97
2023-04-08T00:42:32.935Z,6.78
2023-04-08T00:44:34.620Z,8.80
2023-04-08T00:46:40.693Z,8.80
2023-04-08T00:48:42.509Z,7.18
2023-04-08T00:50:44.624Z,9.07
2023-04-08T00:52:46.497Z,9.25
2023-04-08T00:54:48.177Z,8.57
2023-04-08T00:56:49.886Z,8.68
2023-04-08T00:58:55.272Z,8.68
2023-04-08T01:01:12.947Z,8.60
2023-04-08T01:03:15.703Z,7.93
2023-04-08T01:06:00.057Z,7.90
2023-04-08T01:08:03.992Z,10.48
2023-04-08T01:10:10.325Z,8.10
2023-04-08T01:12:13.043Z,8.98
2023-04-08T01:14:18.136Z,9.73
2023-04-08T01:16:19.982Z,8.85
2023-04-08T01:18:22.298Z,10.55
2023-04-08T01:20:25.602Z,10.85
2023-04-08T01:22:43.349Z,9.30
2023-04-08T01:24:45.954Z,10.82
2023-04-08T01:26:47.783Z,9.82
2023-04-08T01:28:51.730Z,10.70
2023-04-08T01:30:54.457Z,9.82
2023-04-08T01:32:56.842Z,9.80
2023-04-08T01:34:59.358Z,9.52
2023-04-08T01:37:02.509Z,10.13
2023-04-08T01:39:05.917Z,8.23
2023-04-08T01:41:09.450Z,9.18
2023-04-08T01:43:14.471Z,8.85
2023-04-08T01:45:16.645Z,10.38
2023-04-08T01:47:19.358Z,8.80
2023-04-08T01:49:21.843Z,9.23
2023-04-08T01:51:23.787Z,8.77
2023-04-08T01:53:25.679Z,9.25
2023-04-08T01:55:28.371Z,8.15
2023-04-08T01:57:34.119Z,9.10
2023-04-08T01:59:36.700Z,9.32
2023-04-08T02:01:39.243Z,7.60
2023-04-08T02:03:43.477Z,8.80
2023-04-08T02:05:45.420Z,8.90
2023-04-08T02:07:50.690Z,9.32
2023-04-08T02:09:52.339Z,9.85
2023-04-08T02:11:54.097Z,7.63
2023-04-08T02:13:56.149Z,8.55
2023-04-08T02:16:39.016Z,8.32
2023-04-08T02:18:44.722Z,11.43
2023-04-08T02:20:58.008Z,8.88
2023-04-08T02:23:13.457Z,8.93
2023-04-08T02:25:16.665Z,8.93
2023-04-08T02:27:18.866Z,8.43
2023-04-08T02:29:20.605Z,9.10
2023-04-08T02:31:23.144Z,8.65
2023-04-08T02:33:25.189Z,10.35
2023-04-08T02:35:27.855Z,11.60
2023-04-08T02:37:30.786Z,10.52
2023-04-08T02:39:33.282Z,9.13
2023-04-08T02:41:35.027Z,11.30
2023-04-08T02:43:36.921Z,9.07
2023-04-08T02:45:41.512Z,10.10
2023-04-08T02:47:43.233Z,11.75
2023-04-08T02:50:50.611Z,10.15
2023-04-08T02:52:52.287Z,9.05
2023-04-08T02:54:54.011Z,8.73
2023-04-08T02:56:55.614Z,9.75
2023-04-08T02:58:57.376Z,9.63
2023-04-08T03:00:59.156Z,9.77
2023-04-08T03:03:01.340Z,9.55
2023-04-08T03:05:04.411Z,8.50
2023-04-08T03:07:08.524Z,10.95
2023-04-08T03:09:10.582Z,10.48
2023-04-08T03:11:12.278Z,11.32
2023-04-08T03:13:13.921Z,12.38
2023-04-08T03:15:15.852Z,11.95
2023-04-08T03:17:17.523Z,11.77
2023-04-08T03:19:19.157Z,12.38
2023-04-08T03:21:21.050Z,10.70
2023-04-08T03:23:22.806Z,10.27
2023-04-08T03:25:24.475Z,12.15
2023-04-08T03:27:26.407Z,10.68
2023-04-08T03:29:30.875Z,11.55
2023-04-08T03:31:33.216Z,12.30
2023-04-08T03:33:34.873Z,11.43
2023-04-08T03:35:37.530Z,12.38
2023-04-08T03:37:39.277Z,11.90
2023-04-08T03:39:41.013Z,10.82
2023-04-08T03:41:42.754Z,12.85
2023-04-08T03:43:44.693Z,12.05
2023-04-08T03:45:46.377Z,16.45
2023-04-08T03:47:48.145Z,12.68
2023-04-08T03:49:49.867Z,11.88
2023-04-08T03:51:51.907Z,11.75
2023-04-08T03:53:53.559Z,12.15
2023-04-08T03:55:56.525Z,13.35
2023-04-08T03:57:58.255Z,14.63
2023-04-08T04:00:00.022Z,13.10
2023-04-08T04:02:01.837Z,12.10
2023-04-08T04:04:03.772Z,13.63
2023-04-08T04:06:05.684Z,13.02
2023-04-08T04:08:09.471Z,15.27
2023-04-08T04:10:11.976Z,13.77
2023-04-08T04:12:13.652Z,13.55
2023-04-08T04:14:15.563Z,13.98
2023-04-08T04:16:17.650Z,14.25
2023-04-08T04:18:19.362Z,14.05
2023-04-08T04:20:21.908Z,15.25
2023-04-08T04:22:23.610Z,15.57
2023-04-08T04:24:25.303Z,16.00
2023-04-08T04:26:27.183Z,15.35
2023-04-08T04:28:28.927Z,15.60
2023-04-08T04:30:30.874Z,16.50
2023-04-08T04:32:32.655Z,15.68
2023-04-08T04:34:34.667Z,19.17
2023-04-08T04:36:36.739Z,15.05
2023-04-08T04:38:38.991Z,15.50
2023-04-08T04:40:40.888Z,15.90
2023-04-08T04:42:42.591Z,14.75
2023-04-08T04:44:44.661Z,17.48
2023-04-08T04:46:46.561Z,14.35
2023-04-08T04:48:48.409Z,20.85
2023-04-08T04:50:57.413Z,15.73
2023-04-08T04:52:59.115Z,14.65
2023-04-08T04:55:01.071Z,16.05
2023-04-08T04:57:02.758Z,17.90
2023-04-08T04:59:05.579Z,17.88
2023-04-08T05:01:07.339Z,16.35
2023-04-08T05:03:09.220Z,14.35
2023-04-08T05:05:11.118Z,16.60
2023-04-08T05:07:12.840Z,15.18
2023-04-08T05:09:14.498Z,21.35
2023-04-08T05:11:18.515Z,16.38
2023-04-08T05:13:20.245Z,14.52
2023-04-08T05:15:22.018Z,15.80
2023-04-08T05:17:23.784Z,13.13
2023-04-08T05:19:25.545Z,19.48
2023-04-08T05:21:27.792Z,14.23
2023-04-08T05:23:29.469Z,14.32
2023-04-08T05:25:31.208Z,13.82
2023-04-08T05:27:32.891Z,15.07
2023-04-08T05:29:34.546Z,14.07
2023-04-08T05:31:36.754Z,14.07
2023-04-08T05:33:38.409Z,13.77
2023-04-08T05:35:40.086Z,14.13
2023-04-08T05:37:41.829Z,13.98
2023-04-08T05:39:43.526Z,12.50
2023-04-08T05:41:45.854Z,13.68
2023-04-08T05:43:47.484Z,16.90
2023-04-08T05:45:49.175Z,13.85
2023-04-08T05:47:51.111Z,14.25
2023-04-08T05:49:53.150Z,15.63
2023-04-08T05:51:54.898Z,15.50
2023-04-08T05:53:56.689Z,13.40
2023-04-08T05:55:58.396Z,17.02
2023-04-08T05:58:00.059Z,11.93
2023-04-08T06:00:01.735Z,12.35
2023-04-08T06:02:03.552Z,12.02
2023-04-08T06:04:05.560Z,12.20
2023-04-08T06:06:12.005Z,12.52
2023-04-08T06:08:13.873Z,13.95
2023-04-08T06:10:16.120Z,12.35
2023-04-08T06:12:17.966Z,14.18
2023-04-08T06:14:20.945Z,12.73
2023-04-08T06:16:22.775Z,14.43
2023-04-08T06:18:24.582Z,15.00
2023-04-08T06:20:26.484Z,20.67
2023-04-08T06:22:28.201Z,18.27
2023-04-08T06:24:29.910Z,16.80
2023-04-08T06:26:31.668Z,16.25
2023-04-08T06:28:33.373Z,16.52
2023-04-08T06:30:35.071Z,16.60
2023-04-08T06:32:36.760Z,18.45
2023-04-08T06:34:38.538Z,18.42
2023-04-08T06:36:40.331Z,16.67
2023-04-08T06:38:41.991Z,23.48
2023-04-08T06:40:43.778Z,17.65
2023-04-08T06:42:45.581Z,20.23
2023-04-08T06:44:47.241Z,19.35
2023-04-08T06:46:48.928Z,18.73
2023-04-08T06:48:50.886Z,19.73
2023-04-08T06:50:52.917Z,18.85
2023-04-08T06:52:55.578Z,17.80
2023-04-08T06:54:57.415Z,17.85
2023-04-08T06:56:59.146Z,19.00
2023-04-08T06:59:01.345Z,26.27
2023-04-08T07:01:03.481Z,19.02
2023-04-08T07:03:05.232Z,20.05
2023-04-08T07:05:07.394Z,18.77
2023-04-08T07:07:09.661Z,18.77
2023-04-08T07:09:12.241Z,18.90
2023-04-08T07:11:14.043Z,18.77
2023-04-08T07:13:15.756Z,19.92
2023-04-08T07:15:17.412Z,16.95
2023-04-08T07:17:19.504Z,18.20
2023-04-08T07:19:21.171Z,16.95
2023-04-08T07:21:22.910Z,18.38
2023-04-08T07:23:24.569Z,17.20
2023-04-08T07:25:26.279Z,17.13
2023-04-08T07:27:27.965Z,20.73
2023-04-08T07:29:29.672Z,16.60
2023-04-08T07:31:31.436Z,21.05
2023-04-08T07:33:33.489Z,20.27
2023-04-08T07:35:35.291Z,17.58
2023-04-08T07:37:37.052Z,17.80
2023-04-08T07:39:38.670Z,16.92
2023-04-08T07:41:40.470Z,17.60
2023-04-08T07:43:42.185Z,16.95
2023-04-08T07:45:43.877Z,18.05
2023-04-08T07:47:45.655Z,16.95
2023-04-08T07:49:48.210Z,19.05
2023-04-08T07:51:49.919Z,18.58
2023-04-08T07:53:51.661Z,18.50
2023-04-08T07:55:53.646Z,16.65
2023-04-08T07:57:55.354Z,15.88
2023-04-08T07:59:57.154Z,15.98
2023-04-08T08:01:58.877Z,15.40
2023-04-08T08:04:00.828Z,18.25
2023-04-08T08:06:02.537Z,17.88
2023-04-08T08:08:04.705Z,16.83
2023-04-08T08:10:07.040Z,16.90
2023-04-08T08:12:08.777Z,15.95
2023-04-08T08:14:11.893Z,17.30
2023-04-08T08:16:13.738Z,16.08
2023-04-08T08:18:15.524Z,18.02
2023-04-08T08:20:20.238Z,17.48
2023-04-08T08:22:21.958Z,16.63
2023-04-08T08:24:23.615Z,16.98
2023-04-08T08:26:25.621Z,17.58
2023-04-08T08:28:27.835Z,17.27
2023-04-08T08:30:29.542Z,17.48
2023-04-08T08:32:31.880Z,16.50
2023-04-08T08:34:33.776Z,17.30
2023-04-08T08:36:35.535Z,16.73
2023-04-08T08:38:37.284Z,17.27
2023-04-08T08:40:38.948Z,16.45
2023-04-08T08:42:41.458Z,14.77
2023-04-08T08:44:43.111Z,17.38
2023-04-08T08:46:45.393Z,15.85
2023-04-08T08:48:47.241Z,15.93
2023-04-08T08:50:48.928Z,16.58
2023-04-08T08:52:51.815Z,14.32
2023-04-08T08:54:59.854Z,24.90
2023-04-08T08:57:01.748Z,14.38
2023-04-08T08:59:03.500Z,17.40
2023-04-08T09:01:32.510Z,15.82
2023-04-08T09:03:34.446Z,15.27
2023-04-08T09:05:51.335Z,16.35
2023-04-08T09:07:53.324Z,15.90
2023-04-08T09:09:56.978Z,14.82
2023-04-08T09:12:04.917Z,13.70
2023-04-08T09:14:21.435Z,15.60
2023-04-08T09:16:24.133Z,15.45
2023-04-08T09:18:26.372Z,14.07
2023-04-08T09:20:28.113Z,15.88
2023-04-08T09:22:29.812Z,15.65
2023-04-08T09:24:32.051Z,15.38
2023-04-08T09:26:33.987Z,15.10
2023-04-08T09:28:35.632Z,14.93
2023-04-08T09:30:37.289Z,14.70
2023-04-08T09:32:53.074Z,14.80
2023-04-08T09:34:54.814Z,15.07
2023-04-08T09:36:56.860Z,14.70
2023-04-08T09:38:59.014Z,15.38
2023-04-08T09:41:01.654Z,13.98
2023-04-08T09:43:06.036Z,15.05
2023-04-08T09:45:09.119Z,15.23
2023-04-08T09:47:20.235Z,14.85
2023-04-08T09:49:39.353Z,14.73
2023-04-08T09:52:04.354Z,17.42
2023-04-08T09:54:13.319Z,15.95
2023-04-08T09:56:17.838Z,15.70
2023-04-08T09:58:27.676Z,15.77
2023-04-08T10:00:43.277Z,15.40
2023-04-08T10:03:06.824Z,15.55
2023-04-08T10:05:09.408Z,14.52
2023-04-08T10:07:11.612Z,15.45
2023-04-08T10:09:13.543Z,16.58
2023-04-08T10:11:16.300Z,15.68
2023-04-08T10:13:18.081Z,17.35
2023-04-08T10:15:26.110Z,16.05
2023-04-08T10:17:28.734Z,15.32
2023-04-08T10:19:43.137Z,16.20
2023-04-08T10:21:51.080Z,15.43
2023-04-08T10:24:00.124Z,16.38
2023-04-08T10:26:02.118Z,15.32
2023-04-08T10:28:17.883Z,14.88
2023-04-08T10:30:28.800Z,15.02
2023-04-08T10:32:30.739Z,14.65
2023-04-08T10:34:32.443Z,15.77
2023-04-08T10:36:34.138Z,14.88
2023-04-08T10:38:35.939Z,14.63
2023-04-08T10:40:44.453Z,15.13
2023-04-08T10:42:46.434Z,13.98
2023-04-08T10:44:48.073Z,14.85
2023-04-08T10:46:52.092Z,13.73
2023-04-08T10:49:01.699Z,15.88
2023-04-08T10:51:04.446Z,15.07
2023-04-08T10:53:06.353Z,15.45
2023-04-08T10:55:08.286Z,14.57
2023-04-08T10:57:10.126Z,13.95
2023-04-08T10:59:11.920Z,15.93
2023-04-08T11:01:13.811Z,16.45
2023-04-08T11:03:15.876Z,17.55
2023-04-08T11:05:22.717Z,16.40
2023-04-08T11:07:27.192Z,16.95
2023-04-08T11:09:28.840Z,16.77
2023-04-08T11:11:31.300Z,15.60
2023-04-08T11:13:36.965Z,18.60
2023-04-08T11:15:38.767Z,16.58
2023-04-08T11:17:40.734Z,16.45
2023-04-08T11:19:42.425Z,16.08
2023-04-08T11:21:44.294Z,15.98
2023-04-08T11:23:46.510Z,16.48
2023-04-08T11:25:48.347Z,18.80
2023-04-08T11:27:50.566Z,17.30
2023-04-08T11:29:55.033Z,15.43
2023-04-08T11:31:57.169Z,16.98
2023-04-08T11:33:58.790Z,16.13
2023-04-08T11:36:02.373Z,16.45
2023-04-08T11:38:05.507Z,16.75
2023-04-08T11:40:09.340Z,15.93
2023-04-08T11:42:30.054Z,16.38
2023-04-08T11:44:33.197Z,14.45
2023-04-08T11:46:35.792Z,14.98
2023-04-08T11:48:39.186Z,14.55
2023-04-08T11:50:41.940Z,15.85
2023-04-08T11:52:47.741Z,15.18
2023-04-08T11:54:49.431Z,14.25
2023-04-08T11:56:52.512Z,13.52
2023-04-08T11:58:54.210Z,15.27
2023-04-08T12:00:55.958Z,12.48
2023-04-08T12:02:57.739Z,13.00
2023-04-08T12:04:59.548Z,12.80
2023-04-08T12:07:01.270Z,12.48
2023-04-08T12:09:02.917Z,12.88
2023-04-08T12:11:16.874Z,13.23
2023-04-08T12:13:21.489Z,13.18
2023-04-08T12:15:23.781Z,14.68
2023-04-08T12:17:25.609Z,13.65
2023-04-08T12:19:27.724Z,14.13
2023-04-08T12:21:29.382Z,13.45
2023-04-08T12:23:31.657Z,14.25
2023-04-08T12:25:33.303Z,11.63
2023-04-08T12:27:34.984Z,11.02
2023-04-08T12:29:36.601Z,10.13
2023-04-08T12:31:38.614Z,8.85
2023-04-08T12:33:40.368Z,8.20
2023-04-08T12:35:42.008Z,8.02
2023-04-08T12:37:43.832Z,8.02
2023-04-08T12:39:45.987Z,7.03
2023-04-08T12:41:47.842Z,7.05
2023-04-08T12:43:49.535Z,8.38
2023-04-08T12:45:52.020Z,7.68
2023-04-08T12:47:53.672Z,6.78
2023-04-08T12:49:55.346Z,6.78
2023-04-08T12:51:56.987Z,4.75
2023-04-08T12:54:00.391Z,7.20
2023-04-08T12:56:02.997Z,8.45
2023-04-08T12:58:05.717Z,5.97
2023-04-08T13:00:07.982Z,5.63
2023-04-08T13:02:09.739Z,6.70
2023-04-08T13:04:11.585Z,7.22
2023-04-08T13:06:13.576Z,14.88
2023-04-08T13:08:16.138Z,7.18
2023-04-08T13:10:17.844Z,6.88
2023-04-08T13:12:19.518Z,6.97
2023-04-08T13:14:21.386Z,6.45
2023-04-08T13:16:23.110Z,5.57
2023-04-08T13:18:24.813Z,5.28
2023-04-08T13:20:26.834Z,5.60
2023-04-08T13:22:28.507Z,4.68
2023-04-08T13:24:30.324Z,5.47
2023-04-08T13:26:32.135Z,5.70
2023-04-08T13:28:38.647Z,6.35
2023-04-08T13:30:45.443Z,5.40
2023-04-08T13:32:47.284Z,6.57
2023-04-08T13:34:48.981Z,5.65
2023-04-08T13:36:50.630Z,6.03
2023-04-08T13:38:52.500Z,6.00
2023-04-08T13:40:54.301Z,6.30
2023-04-08T13:42:56.238Z,7.32
2023-04-08T13:44:57.986Z,7.57
2023-04-08T13:47:00.132Z,8.32
2023-04-08T13:49:04.655Z,8.38
2023-04-08T13:51:06.306Z,7.65
2023-04-08T13:53:11.085Z,7.03
2023-04-08T13:55:12.741Z,7.90
2023-04-08T13:57:14.441Z,7.55
2023-04-08T13:59:16.265Z,7.63
2023-04-08T14:01:17.971Z,7.53
2023-04-08T14:03:19.711Z,8.32
2023-04-08T14:05:21.760Z,8.77
2023-04-08T14:07:23.422Z,7.85
2023-04-08T14:09:25.454Z,9.93
2023-04-08T14:11:27.127Z,8.65
2023-04-08T14:13:28.753Z,8.80
2023-04-08T14:15:30.368Z,8.02
2023-04-08T14:17:32.107Z,9.25
2023-04-08T14:19:33.959Z,9.77
2023-04-08T14:21:35.694Z,8.90
2023-04-08T14:23:37.359Z,8.85
2023-04-08T14:25:39.188Z,9.48
2023-04-08T14:27:54.731Z,8.27
2023-04-08T14:29:59.438Z,9.68
2023-04-08T14:32:01.144Z,7.75
2023-04-08T14:34:02.896Z,9.25
2023-04-08T14:36:04.656Z,9.07
2023-04-08T14:38:06.389Z,9.10
2023-04-08T14:40:08.742Z,7.93
2023-04-08T14:42:10.719Z,8.52
2023-04-08T14:44:12.361Z,6.93
2023-04-08T14:46:14.081Z,8.75
2023-04-08T14:48:15.686Z,9.48
2023-04-08T14:50:17.605Z,8.13
2023-04-08T14:52:19.302Z,9.20
2023-04-08T14:54:21.146Z,8.20
2023-04-08T14:56:22.804Z,7.18
2023-04-08T14:58:24.456Z,7.35
2023-04-08T15:00:26.250Z,7.90
2023-04-08T15:02:28.078Z,6.93
2023-04-08T15:04:29.938Z,8.18
2023-04-08T15:06:32.285Z,7.43
2023-04-08T15:08:35.143Z,6.65
2023-04-08T15:10:36.982Z,7.28
2023-04-08T15:12:39.022Z,7.53
2023-04-08T15:14:40.729Z,6.40
2023-04-08T15:16:42.344Z,6.20
2023-04-08T15:18:43.978Z,6.78
2023-04-08T15:20:45.890Z,6.47
2023-04-08T15:22:50.248Z,6.63
2023-04-08T15:24:51.902Z,6.30
2023-04-08T15:26:53.561Z,7.05
2023-04-08T15:28:57.453Z,6.18
2023-04-08T15:30:59.341Z,6.38
2023-04-08T15:33:03.670Z,5.15
2023-04-08T15:35:06.727Z,5.68
2023-04-08T15:37:08.820Z,5.38
2023-04-08T15:39:10.569Z,5.68
2023-04-08T15:41:17.133Z,5.95
2023-04-08T15:43:19.288Z,5.20
2023-04-08T15:45:21.926Z,5.53
2023-04-08T15:47:23.902Z,5.93
2023-04-08T15:49:25.825Z,4.22
2023-04-08T15:51:27.879Z,5.32
2023-04-08T15:53:29.501Z,4.03
2023-04-08T15:55:31.293Z,4.72
2023-04-08T15:57:33.347Z,5.32
2023-04-08T15:59:35.030Z,5.65
2023-04-08T16:01:36.763Z,4.90
2023-04-08T16:03:38.987Z,5.18
2023-04-08T16:05:41.946Z,5.05
2023-04-08T16:07:43.654Z,4.25
2023-04-08T16:09:45.424Z,3.50
2023-04-08T16:11:47.305Z,5.53
2023-04-08T16:13:48.933Z,7.45
2023-04-08T16:15:50.786Z,6.35
2023-04-08T16:17:52.947Z,5.22
2023-04-08T16:19:54.700Z,7.38
2023-04-08T16:21:56.678Z,6.38
2023-04-08T16:23:58.332Z,6.13
2023-04-08T16:26:00.404Z,6.05
2023-04-08T16:28:02.093Z,5.68
2023-04-08T16:30:04.806Z,9.13
2023-04-08T16:32:06.803Z,5.20
2023-04-08T16:34:08.435Z,4.90
2023-04-08T16:36:10.187Z,4.43
2023-04-08T16:38:12.010Z,4.57
2023-04-08T16:40:13.656Z,5.45
2023-04-08T16:42:16.619Z,5.30
2023-04-08T16:44:18.401Z,5.18
2023-04-08T16:46:20.117Z,4.50
2023-04-08T16:48:22.398Z,5.30
2023-04-08T16:50:24.440Z,6.00
2023-04-08T16:52:26.145Z,6.22
2023-04-08T16:54:27.754Z,5.72
2023-04-08T16:56:29.488Z,5.70
2023-04-08T16:58:31.349Z,5.72
2023-04-08T17:00:33.027Z,5.15
2023-04-08T17:02:34.870Z,9.65
2023-04-08T17:04:36.596Z,6.35
2023-04-08T17:06:40.724Z,6.03
2023-04-08T17:08:43.545Z,7.38
2023-04-08T17:10:45.534Z,6.15
2023-04-08T17:12:47.157Z,7.60
2023-04-08T17:14:48.826Z,6.60
2023-04-08T17:16:50.843Z,7.55
2023-04-08T17:18:52.662Z,6.35
2023-04-08T17:20:54.264Z,6.60
2023-04-08T17:22:56.293Z,6.82
2023-04-08T17:24:57.935Z,6.28
2023-04-08T17:27:00.185Z,6.50
2023-04-08T17:29:01.834Z,6.53
2023-04-08T17:31:03.613Z,6.97
2023-04-08T17:33:05.922Z,5.57
2023-04-08T17:35:07.948Z,6.97
2023-04-08T17:37:10.441Z,6.60
2023-04-08T17:39:12.069Z,6.25
2023-04-08T17:41:18.713Z,5.47
2023-04-08T17:43:27.335Z,6.90
2023-04-08T17:45:28.981Z,6.32
2023-04-08T17:47:30.681Z,5.75
2023-04-08T17:49:32.447Z,5.57
2023-04-08T17:51:34.403Z,6.22
2023-04-08T17:53:36.132Z,5.50
2023-04-08T17:55:37.941Z,5.63
2023-04-08T17:57:39.707Z,7.10
2023-04-08T17:59:41.380Z,5.80
2023-04-08T18:01:43.174Z,4.72
2023-04-08T18:03:44.914Z,6.25
2023-04-08T18:05:46.667Z,5.85
2023-04-08T18:07:48.343Z,5.57
2023-04-08T18:09:50.433Z,6.68
2023-04-08T18:11:52.096Z,5.32
2023-04-08T18:13:53.873Z,8.13
2023-04-08T18:15:55.865Z,6.22
2023-04-08T18:17:57.592Z,6.28
2023-04-08T18:19:59.561Z,6.15
2023-04-08T18:22:01.195Z,5.78
2023-04-08T18:24:02.801Z,5.53
2023-04-08T18:26:04.531Z,5.93
2023-04-08T18:28:06.489Z,5.70
2023-04-08T18:30:08.584Z,5.40
2023-04-08T18:32:10.278Z,6.25
2023-04-08T18:34:11.889Z,4.43
2023-04-08T18:36:14.120Z,5.50
2023-04-08T18:38:16.172Z,5.93
2023-04-08T18:40:17.971Z,6.45
2023-04-08T18:42:19.694Z,6.70
2023-04-08T18:44:21.379Z,7.45
2023-04-08T18:46:24.771Z,6.88
2023-04-08T18:48:26.665Z,5.53
2023-04-08T18:50:28.235Z,6.68
2023-04-08T18:52:30.970Z,7.93
2023-04-08T18:54:32.611Z,12.55
2023-04-08T18:56:34.682Z,7.07
2023-04-08T18:58:36.850Z,6.00
2023-04-08T19:00:41.993Z,7.28
2023-04-08T19:02:43.789Z,6.03
2023-04-08T19:04:45.584Z,6.75
2023-04-08T19:06:47.471Z,6.55
2023-04-08T19:08:49.151Z,5.55
2023-04-08T19:10:50.798Z,6.97
2023-04-08T19:12:55.463Z,7.13
2023-04-08T19:14:57.049Z,6.85
2023-04-08T19:16:58.741Z,7.43
2023-04-08T19:19:00.530Z,8.50
2023-04-08T19:21:02.320Z,7.82
2023-04-08T19:23:04.006Z,7.63
2023-04-08T19:25:06.090Z,7.72
2023-04-08T19:27:07.902Z,7.10
2023-04-08T19:29:09.642Z,8.55
2023-04-08T19:31:18.029Z,8.23
2023-04-08T19:33:19.607Z,7.68
2023-04-08T19:35:21.350Z,7.10
2023-04-08T19:37:22.950Z,8.50
2023-04-08T19:39:26.697Z,7.55
2023-04-08T19:41:29.777Z,7.28
2023-04-08T19:43:31.499Z,7.22
2023-04-08T19:45:34.259Z,6.90
2023-04-08T19:47:36.637Z,7.80
2023-04-08T19:49:38.872Z,7.57
2023-04-08T19:51:40.550Z,7.13
2023-04-08T19:53:42.429Z,6.80
2023-04-08T19:55:44.545Z,8.40
2023-04-08T19:57:46.173Z,6.30
2023-04-08T19:59:48.805Z,6.70
2023-04-08T20:01:51.291Z,7.15
2023-04-08T20:03:53.274Z,7.20
2023-04-08T20:05:55.478Z,6.32
2023-04-08T20:07:57.408Z,7.38
2023-04-08T20:09:59.148Z,6.00
2023-04-08T20:12:04.719Z,6.10
2023-04-08T20:14:06.548Z,6.47
2023-04-08T20:16:08.247Z,6.40
2023-04-08T20:18:09.986Z,4.72
2023-04-08T20:20:12.247Z,5.65
2023-04-08T20:22:13.930Z,6.03
2023-04-08T20:24:16.372Z,7.45
2023-04-08T20:26:18.048Z,6.00
2023-04-08T20:28:20.468Z,7.78
2023-04-08T20:30:22.808Z,6.60
2023-04-08T20:32:24.565Z,7.72
2023-04-08T20:34:26.348Z,7.68
2023-04-08T20:36:30.802Z,8.05
2023-04-08T20:38:35.304Z,6.88
2023-04-08T20:40:37.148Z,7.15
2023-04-08T20:42:38.849Z,8.30
2023-04-08T20:44:40.687Z,6.20
2023-04-08T20:46:42.842Z,7.82
2023-04-08T20:48:44.842Z,7.25
2023-04-08T20:50:48.808Z,6.97
2023-04-08T20:52:50.514Z,7.80
2023-04-08T20:54:52.177Z,6.85
2023-04-08T20:56:53.871Z,6.82
2023-04-08T20:58:58.226Z,6.03
2023-04-08T21:01:01.478Z,6.80
2023-04-08T21:03:03.418Z,7.10
2023-04-08T21:05:05.084Z,6.18
2023-04-08T21:07:06.733Z,5.68
2023-04-08T21:09:08.354Z,6.25
2023-04-08T21:11:10.070Z,6.95
2023-04-08T21:13:11.683Z,7.00
2023-04-08T21:15:13.253Z,7.13
2023-04-08T21:17:14.889Z,6.22
2023-04-08T21:19:16.506Z,6.30
2023-04-08T21:21:18.212Z,6.95
2023-04-08T21:23:19.974Z,6.78
2023-04-08T21:25:21.637Z,7.82
2023-04-08T21:27:23.280Z,6.18
2023-04-08T21:29:24.926Z,7.25
2023-04-08T21:31:30.361Z,8.80
2023-04-08T21:33:32.746Z,8.23
2023-04-08T21:35:34.985Z,7.53
2023-04-08T21:37:36.763Z,7.78
2023-04-08T21:39:38.370Z,7.13
2023-04-08T21:41:40.135Z,8.00
2023-04-08T21:43:41.809Z,7.20
2023-04-08T21:45:43.606Z,8.38
2023-04-08T21:47:45.631Z,7.45
2023-04-08T21:49:48.532Z,6.90
2023-04-08T21:51:50.250Z,7.32
2023-04-08T21:53:52.223Z,7.05
2023-04-08T21:55:54.210Z,7.13
2023-04-08T21:57:55.817Z,6.28
2023-04-08T21:59:57.478Z,7.47
2023-04-08T22:01:59.849Z,7.55
2023-04-08T22:04:01.652Z,8.68
2023-04-08T22:06:03.465Z,8.32
2023-04-08T22:08:05.518Z,9.95
2023-04-08T22:10:07.888Z,7.82
2023-04-08T22:12:11.336Z,8.40
2023-04-08T22:14:12.979Z,7.32
2023-04-08T22:16:14.660Z,6.03
2023-04-08T22:18:16.343Z,8.18
2023-04-08T22:20:17.996Z,6.70
2023-04-08T22:22:19.629Z,7.18
2023-04-08T22:24:21.372Z,6.45
2023-04-08T22:26:23.158Z,7.00
2023-04-08T22:28:24.826Z,6.80
2023-04-08T22:30:26.474Z,6.90
2023-04-08T22:32:28.145Z,7.18
2023-04-08T22:34:29.812Z,6.10
2023-04-08T22:36:31.607Z,6.30
2023-04-08T22:38:33.347Z,6.60
2023-04-08T22:40:38.159Z,6.88
2023-04-08T22:42:39.804Z,7.47
2023-04-08T22:44:41.410Z,8.68
2023-04-08T22:46:43.044Z,7.40
2023-04-08T22:48:45.446Z,9.00
2023-04-08T22:50:47.178Z,10.60
2023-04-08T22:52:48.761Z,9.43
2023-04-08T22:54:50.380Z,10.95
2023-04-08T22:56:52.033Z,8.65
2023-04-08T22:58:53.773Z,8.55
2023-04-08T23:00:55.815Z,8.82
2023-04-08T23:02:57.945Z,8.63
2023-04-08T23:04:59.664Z,9.80
2023-04-08T23:07:01.345Z,8.27
2023-04-08T23:09:03.119Z,9.20
2023-04-08T23:11:05.595Z,8.68
2023-04-08T23:13:07.256Z,9.07
2023-04-08T23:15:09.282Z,9.18
2023-04-08T23:17:11.000Z,9.35
2023-04-08T23:19:12.671Z,8.93
2023-04-08T23:21:14.365Z,9.85
2023-04-08T23:23:16.079Z,8.57
2023-04-08T23:25:17.695Z,8.00
2023-04-08T23:27:19.289Z,9.45
2023-04-08T23:29:20.921Z,8.32
2023-04-08T23:31:22.824Z,11.65
2023-04-08T23:33:24.575Z,9.32
2023-04-08T23:35:26.270Z,7.95
2023-04-08T23:37:28.954Z,9.60
2023-04-08T23:39:31.502Z,7.03
2023-04-08T23:41:33.221Z,7.75
2023-04-08T23:43:36.033Z,8.20
2023-04-08T23:45:37.697Z,7.97
2023-04-08T23:47:39.579Z,7.95
2023-04-08T23:49:41.300Z,8.02
2023-04-08T23:51:43.159Z,7.60
2023-04-08T23:53:44.843Z,7.60
2023-04-08T23:55:47.006Z,7.85
2023-04-08T23:57:50.768Z,6.95
2023-04-08T23:59:52.570Z,7.68
